Time;durP1;ratioP1;P1;durP2;ratioP2;P2;SDS_P1;SDS_P2;PMS_P1;PMS_P2;Temp;Humidity;BMP_temperature;BMP_pressure;BME280_temperature;BME280_humidity;BME280_pressure;Samples;Min_cycle;Max_cycle;Signal;HPM_P1;HPM_P2
2022/01/17 00:02:28;;;;;;;20.50;3.15;;;5.30;99.90;;;;;;5099475;28;20067;-61
2022/01/17 00:04:54;;;;;;;15.02;2.35;;;5.30;99.90;;;;;;5099675;28;20043;-62
2022/01/17 00:07:20;;;;;;;14.63;2.15;;;5.30;99.90;;;;;;5099469;28;20048;-62
2022/01/17 00:09:45;;;;;;;14.10;2.13;;;5.30;99.90;;;;;;5099990;28;20035;-62
2022/01/17 00:12:11;;;;;;;21.60;3.67;;;5.40;99.90;;;;;;5089390;28;20040;-62
2022/01/17 00:14:41;;;;;;;15.60;4.60;;;5.40;99.90;;;;;;5120228;28;20051;-62
2022/01/17 00:19:43;;;;;;;13.40;2.70;;;5.40;99.90;;;;;;5119160;28;20062;-62
2022/01/17 00:22:10;;;;;;;11.10;2.10;;;5.40;99.90;;;;;;5119351;28;20047;-62
2022/01/17 00:24:36;;;;;;;13.43;2.38;;;5.40;99.90;;;;;;5119533;28;20066;-62
2022/01/17 00:27:03;;;;;;;20.33;2.67;;;5.40;99.90;;;;;;5101684;28;20047;-62
2022/01/17 00:29:28;;;;;;;19.33;3.05;;;5.40;99.90;;;;;;5100306;28;20127;-62
2022/01/17 00:31:54;;;;;;;18.00;2.90;;;5.30;99.90;;;;;;5099119;28;20067;-62
2022/01/17 00:34:20;;;;;;;19.80;3.35;;;5.30;99.90;;;;;;5098857;28;20067;-63
2022/01/17 00:36:46;;;;;;;19.45;2.92;;;5.20;99.90;;;;;;5098870;28;20123;-62
2022/01/17 00:39:11;;;;;;;15.35;2.95;;;5.20;99.90;;;;;;5098815;28;20044;-61
2022/01/17 00:41:37;;;;;;;18.80;2.90;;;5.30;99.90;;;;;;5098892;28;20105;-62
2022/01/17 00:44:04;;;;;;;16.52;4.20;;;5.20;99.90;;;;;;5099382;28;20040;-62
2022/01/17 00:46:30;;;;;;;17.23;2.80;;;5.20;99.90;;;;;;5098536;28;20055;-62
2022/01/17 00:48:56;;;;;;;15.27;3.13;;;5.10;99.90;;;;;;5099329;28;20032;-61
2022/01/17 00:51:21;;;;;;;23.33;3.22;;;5.10;99.90;;;;;;5098410;28;20051;-62
2022/01/17 00:53:48;;;;;;;21.15;2.95;;;5.10;99.90;;;;;;5063954;28;20044;-61
2022/01/17 00:56:14;;;;;;;18.17;2.80;;;5.10;99.90;;;;;;5098604;28;20068;-61
2022/01/17 00:58:40;;;;;;;16.85;2.60;;;5.00;99.90;;;;;;5098411;28;20048;-61
2022/01/17 01:01:06;;;;;;;20.45;2.92;;;5.00;99.90;;;;;;5098871;28;20032;-61
2022/01/17 01:03:31;;;;;;;18.23;3.38;;;5.00;99.90;;;;;;5080112;28;20044;-61
2022/01/17 01:05:57;;;;;;;18.60;3.00;;;5.00;99.90;;;;;;5099153;28;20413;-61
2022/01/17 01:08:23;;;;;;;19.05;3.83;;;5.00;99.90;;;;;;5098297;28;20139;-61
2022/01/17 01:10:49;;;;;;;16.63;2.70;;;5.00;99.90;;;;;;5080411;28;20095;-61
2022/01/17 01:13:17;;;;;;;25.17;3.10;;;5.00;99.90;;;;;;5100965;28;20044;-62
2022/01/17 01:18:17;;;;;;;15.90;2.67;;;5.00;99.90;;;;;;5102955;28;20097;-61
2022/01/17 01:29:01;;;;;;;17.63;2.47;;;5.00;99.90;;;;;;5008265;28;20077;-61
2022/01/17 01:31:40;;;;;;;16.75;3.10;;;5.00;99.90;;;;;;5020279;28;20061;-61
2022/01/17 01:34:07;;;;;;;13.27;2.63;;;5.00;99.90;;;;;;5053836;28;20120;-62
2022/01/17 01:36:34;;;;;;;12.20;2.95;;;4.90;99.90;;;;;;5082214;28;20041;-61
2022/01/17 01:39:03;;;;;;;14.75;2.65;;;5.00;99.90;;;;;;5063914;28;20045;-62
2022/01/17 01:41:28;;;;;;;19.88;3.15;;;4.90;99.90;;;;;;5081903;28;20100;-61
2022/01/17 01:43:54;;;;;;;19.63;3.78;;;5.00;99.90;;;;;;5064118;28;20032;-62
2022/01/17 01:46:20;;;;;;;15.82;2.65;;;4.90;99.90;;;;;;5081668;28;20048;-61
2022/01/17 01:48:46;;;;;;;21.80;3.60;;;4.90;99.90;;;;;;5082237;28;20701;-61
2022/01/17 01:51:13;;;;;;;21.80;3.15;;;5.00;99.90;;;;;;5062508;28;20041;-61
2022/01/17 01:53:39;;;;;;;15.15;3.33;;;4.90;99.90;;;;;;5081598;28;20052;-61
2022/01/17 01:56:05;;;;;;;16.75;3.85;;;4.90;99.90;;;;;;5081226;28;20067;-62
2022/01/17 01:58:30;;;;;;;15.82;2.42;;;4.90;99.90;;;;;;5063318;28;20036;-61
2022/01/17 02:00:56;;;;;;;16.70;2.40;;;4.90;99.90;;;;;;5081776;28;20477;-61
2022/01/17 02:03:23;;;;;;;16.60;2.67;;;4.90;99.90;;;;;;5046216;28;20104;-61
2022/01/17 02:05:49;;;;;;;19.75;3.97;;;4.80;99.90;;;;;;5081851;28;20044;-61
2022/01/17 02:08:15;;;;;;;15.80;2.60;;;4.80;99.90;;;;;;5081040;28;20041;-61
2022/01/17 02:10:41;;;;;;;14.80;3.25;;;4.80;99.90;;;;;;5081500;28;20068;-61
2022/01/17 02:13:08;;;;;;;20.65;2.45;;;4.70;99.90;;;;;;5097596;28;20054;-62
2022/01/17 02:15:36;;;;;;;13.80;3.15;;;4.70;99.90;;;;;;5082928;28;20096;-61
2022/01/17 02:18:02;;;;;;;18.65;2.95;;;4.70;99.90;;;;;;5083310;28;20048;-61
2022/01/17 02:20:42;;;;;;;19.75;3.42;;;4.70;99.90;;;;;;5101061;28;20574;-62
2022/01/17 02:23:08;;;;;;;22.30;4.70;;;4.60;99.90;;;;;;5083430;28;20051;-61
2022/01/17 02:25:34;;;;;;;15.98;3.47;;;4.60;99.90;;;;;;5081879;28;20095;-61
2022/01/17 02:28:01;;;;;;;17.85;2.80;;;4.70;99.90;;;;;;5092659;28;20044;-62
2022/01/17 02:30:31;;;;;;;19.65;3.72;;;4.70;99.90;;;;;;5080875;28;20041;-61
2022/01/17 02:33:01;;;;;;;19.40;3.08;;;4.70;99.90;;;;;;5080652;28;20115;-61
2022/01/17 02:35:28;;;;;;;20.60;2.83;;;4.80;99.90;;;;;;5081288;28;20044;-61
2022/01/17 02:37:55;;;;;;;19.70;3.05;;;4.80;99.90;;;;;;5080814;28;20062;-61
2022/01/17 02:40:22;;;;;;;22.02;2.95;;;4.80;99.90;;;;;;5081324;28;20051;-61
2022/01/17 02:43:00;;;;;;;19.42;3.40;;;4.90;99.90;;;;;;5080467;28;20514;-62
2022/01/17 02:45:35;;;;;;;22.83;2.55;;;4.90;99.90;;;;;;5079204;28;20074;-61
2022/01/17 02:48:04;;;;;;;25.17;5.07;;;5.00;99.90;;;;;;5080965;28;20049;-61
2022/01/17 02:50:30;;;;;;;19.33;3.40;;;5.00;99.90;;;;;;5062571;28;20048;-61
2022/01/17 02:53:00;;;;;;;18.25;3.30;;;4.90;99.90;;;;;;5081140;28;20332;-62
2022/01/17 02:55:26;;;;;;;22.15;3.10;;;5.00;99.90;;;;;;5080147;28;20087;-61
2022/01/17 02:57:52;;;;;;;19.83;2.80;;;5.00;99.90;;;;;;5080568;28;20072;-62
2022/01/17 03:00:18;;;;;;;16.92;2.60;;;5.00;99.90;;;;;;5080079;28;20052;-61
2022/01/17 03:02:48;;;;;;;23.42;3.65;;;5.00;99.90;;;;;;5079044;28;20055;-61
2022/01/17 03:05:15;;;;;;;20.38;3.53;;;5.00;99.90;;;;;;5062453;28;20623;-61
2022/01/17 03:07:41;;;;;;;21.45;3.92;;;5.10;99.90;;;;;;5080186;28;20060;-61
2022/01/17 03:10:14;;;;;;;19.92;3.15;;;5.10;99.90;;;;;;5081027;28;20110;-61
2022/01/17 03:12:39;;;;;;;18.73;3.28;;;5.10;99.90;;;;;;5092920;28;20105;-61
2022/01/17 03:15:06;;;;;;;18.02;2.95;;;5.10;99.90;;;;;;5100472;28;20040;-61
2022/01/17 03:17:31;;;;;;;20.02;3.05;;;5.10;99.90;;;;;;5065504;28;20137;-61
2022/01/17 03:19:57;;;;;;;16.48;2.30;;;5.10;99.90;;;;;;5099932;28;20457;-61
2022/01/17 03:22:23;;;;;;;16.25;2.92;;;5.10;99.90;;;;;;5099330;28;20024;-62
2022/01/17 03:24:48;;;;;;;17.17;2.75;;;5.20;99.90;;;;;;5099859;28;20040;-61
2022/01/17 03:27:14;;;;;;;22.15;3.10;;;5.20;99.90;;;;;;5113977;28;20058;-61
2022/01/17 03:29:40;;;;;;;23.30;2.88;;;5.20;99.90;;;;;;5099753;28;20074;-61
2022/01/17 03:32:06;;;;;;;16.42;3.30;;;5.20;99.90;;;;;;5098831;28;20048;-61
2022/01/17 03:34:31;;;;;;;20.10;2.97;;;5.30;99.90;;;;;;5081585;28;20048;-61
2022/01/17 03:36:57;;;;;;;19.63;2.92;;;5.30;99.90;;;;;;5098126;28;20653;-61
2022/01/17 03:39:23;;;;;;;24.98;3.33;;;5.40;99.90;;;;;;5082157;28;20059;-61
2022/01/17 03:41:48;;;;;;;19.00;3.13;;;5.40;99.90;;;;;;5081594;28;20047;-61
2022/01/17 03:44:14;;;;;;;15.07;3.28;;;5.40;99.90;;;;;;5100678;28;20054;-61
2022/01/17 03:46:40;;;;;;;18.85;3.00;;;5.50;99.90;;;;;;5081195;28;20108;-61
2022/01/17 03:49:05;;;;;;;18.48;3.35;;;5.40;99.90;;;;;;5047958;28;20047;-61
2022/01/17 03:51:31;;;;;;;17.92;2.50;;;5.40;99.90;;;;;;5081096;28;20048;-61
2022/01/17 03:53:57;;;;;;;19.30;2.85;;;5.50;99.90;;;;;;5099480;28;20039;-61
2022/01/17 03:56:23;;;;;;;20.67;3.33;;;5.40;99.90;;;;;;5081454;28;20070;-62
2022/01/17 03:58:49;;;;;;;14.43;2.67;;;5.40;99.90;;;;;;5097987;28;20048;-61
2022/01/17 04:01:15;;;;;;;15.38;2.70;;;5.40;99.90;;;;;;5100091;28;20375;-62
2022/01/17 04:03:41;;;;;;;19.00;3.30;;;5.40;99.90;;;;;;5099183;28;20081;-61
2022/01/17 04:06:07;;;;;;;17.45;3.67;;;5.40;99.90;;;;;;5099669;28;20433;-61
2022/01/17 04:08:34;;;;;;;16.42;3.20;;;5.40;99.90;;;;;;5080919;28;20032;-61
2022/01/17 04:11:00;;;;;;;12.85;1.95;;;5.30;99.90;;;;;;5099306;28;20048;-61
2022/01/17 04:13:26;;;;;;;23.15;3.80;;;5.30;99.90;;;;;;5099139;28;20089;-62
2022/01/17 04:15:51;;;;;;;19.13;3.55;;;5.40;99.90;;;;;;5099306;28;20036;-62
2022/01/17 04:18:23;;;;;;;17.17;3.10;;;5.40;99.90;;;;;;5099378;28;20040;-61
2022/01/17 04:20:49;;;;;;;17.67;2.77;;;5.40;99.90;;;;;;5098732;28;20044;-61
2022/01/17 04:23:14;;;;;;;22.92;2.67;;;5.40;99.90;;;;;;5099367;28;20055;-61
2022/01/17 04:25:42;;;;;;;17.45;3.08;;;5.40;99.90;;;;;;5098402;28;20052;-61
2022/01/17 04:28:11;;;;;;;15.77;2.80;;;5.50;99.90;;;;;;5060816;28;20033;-61
2022/01/17 04:30:37;;;;;;;18.63;4.03;;;5.50;99.90;;;;;;5060891;28;20072;-62
2022/01/17 04:33:04;;;;;;;13.45;2.80;;;5.50;99.90;;;;;;5078725;28;20042;-61
2022/01/17 04:35:31;;;;;;;19.25;4.57;;;5.50;99.90;;;;;;5079341;28;20078;-61
2022/01/17 04:38:05;;;;;;;16.75;3.25;;;5.60;99.90;;;;;;5078646;28;20040;-61
2022/01/17 04:40:35;;;;;;;22.90;3.78;;;5.60;99.90;;;;;;5061562;28;20138;-61
2022/01/17 04:43:05;;;;;;;24.25;3.67;;;5.70;99.90;;;;;;5060520;28;20045;-61
2022/01/17 04:45:32;;;;;;;18.92;2.97;;;5.60;99.90;;;;;;5078547;28;20092;-62
2022/01/17 04:47:58;;;;;;;18.92;2.92;;;5.70;99.90;;;;;;5077901;28;20878;-62
2022/01/17 04:50:27;;;;;;;16.52;2.45;;;5.80;99.90;;;;;;5078329;28;20044;-61
2022/01/17 04:52:57;;;;;;;17.10;3.03;;;5.80;99.90;;;;;;5061260;28;20052;-61
2022/01/17 04:55:24;;;;;;;21.65;3.40;;;5.90;99.90;;;;;;5078620;28;20052;-61
2022/01/17 04:57:50;;;;;;;18.10;2.80;;;5.80;99.90;;;;;;5078681;28;20065;-61
2022/01/17 05:00:18;;;;;;;18.98;3.83;;;5.90;99.90;;;;;;5078464;28;20043;-61
2022/01/17 05:02:44;;;;;;;18.85;4.00;;;5.90;99.90;;;;;;5060601;28;20071;-61
2022/01/17 05:05:11;;;;;;;25.20;4.13;;;5.90;99.90;;;;;;5043715;28;20040;-62
2022/01/17 05:07:38;;;;;;;19.65;3.35;;;5.90;99.90;;;;;;5060100;28;20082;-60
2022/01/17 05:10:08;;;;;;;20.70;3.45;;;5.90;99.90;;;;;;5060887;28;20067;-62
2022/01/17 05:12:34;;;;;;;19.92;2.80;;;5.90;99.90;;;;;;5077948;28;20546;-62
2022/01/17 05:15:00;;;;;;;17.55;3.33;;;5.90;99.90;;;;;;5078513;28;20047;-62
2022/01/17 05:19:57;;;;;;;17.48;3.55;;;6.10;99.90;;;;;;5078172;28;20071;-61
2022/01/17 05:22:31;;;;;;;29.05;5.13;;;5.90;99.90;;;;;;5078811;28;20545;-61
2022/01/17 05:24:56;;;;;;;19.77;3.25;;;6.00;99.90;;;;;;5059767;28;20055;-62
2022/01/17 05:27:22;;;;;;;19.95;4.20;;;5.90;99.90;;;;;;5078452;28;20048;-61
2022/01/17 05:29:48;;;;;;;20.50;3.95;;;6.00;99.90;;;;;;5059962;28;20052;-61
2022/01/17 05:32:14;;;;;;;20.90;4.10;;;6.00;99.90;;;;;;5043479;28;20056;-62
2022/01/17 05:34:41;;;;;;;15.70;3.97;;;6.00;99.90;;;;;;5078256;28;20045;-61
2022/01/17 05:37:09;;;;;;;19.33;3.78;;;6.00;99.90;;;;;;5078004;28;20589;-61
2022/01/17 05:39:35;;;;;;;21.25;3.75;;;6.00;99.90;;;;;;5078737;28;20052;-62
2022/01/17 05:42:02;;;;;;;19.25;4.07;;;6.00;99.90;;;;;;5077859;28;20066;-61
2022/01/17 05:44:27;;;;;;;18.58;4.25;;;6.00;99.90;;;;;;5078539;28;20053;-61
2022/01/17 05:46:53;;;;;;;21.77;4.07;;;6.00;99.90;;;;;;5077978;28;20048;-61
2022/01/17 05:49:19;;;;;;;26.77;4.10;;;6.00;99.90;;;;;;5059790;28;20068;-61
2022/01/17 05:51:44;;;;;;;23.77;5.05;;;6.40;99.90;;;;;;5026940;28;20540;-61
2022/01/17 05:54:10;;;;;;;21.40;5.45;;;6.00;99.90;;;;;;5078055;28;20041;-61
2022/01/17 05:56:36;;;;;;;23.95;4.57;;;6.00;99.90;;;;;;5060633;28;20049;-61
2022/01/17 05:59:02;;;;;;;25.33;4.82;;;6.00;99.90;;;;;;5079665;28;20036;-61
2022/01/17 06:01:27;;;;;;;19.80;4.32;;;5.90;99.90;;;;;;5082100;28;20555;-61
2022/01/17 06:03:53;;;;;;;23.40;4.55;;;5.90;99.90;;;;;;5081154;28;20071;-61
2022/01/17 06:06:19;;;;;;;20.75;5.00;;;5.90;99.90;;;;;;5030053;28;20041;-61
2022/01/17 06:08:44;;;;;;;20.15;3.90;;;5.90;99.90;;;;;;5063197;28;20043;-61
2022/01/17 06:11:10;;;;;;;18.92;3.22;;;5.90;99.90;;;;;;5082460;28;20056;-61
2022/01/17 06:13:36;;;;;;;17.30;5.05;;;6.00;99.90;;;;;;5101981;28;20047;-61
2022/01/17 06:16:02;;;;;;;25.08;5.55;;;6.00;99.90;;;;;;5083015;28;20094;-61
2022/01/17 06:18:28;;;;;;;21.23;4.03;;;6.00;99.90;;;;;;5101478;28;20061;-62
2022/01/17 06:20:53;;;;;;;26.58;4.93;;;5.90;99.90;;;;;;5100585;28;20070;-62
2022/01/17 06:23:20;;;;;;;21.33;4.70;;;6.00;99.90;;;;;;5101037;28;20428;-62
2022/01/17 06:25:46;;;;;;;22.80;4.50;;;6.00;99.90;;;;;;5102106;28;20040;-62
2022/01/17 06:28:12;;;;;;;21.15;4.63;;;6.00;99.90;;;;;;5109252;28;20051;-62
2022/01/17 06:30:38;;;;;;;25.05;4.53;;;6.00;99.90;;;;;;5079754;28;20063;-62
2022/01/17 06:33:04;;;;;;;23.13;4.88;;;6.00;99.90;;;;;;5097564;28;20044;-62
2022/01/17 06:35:30;;;;;;;23.33;4.43;;;6.00;99.90;;;;;;5080242;28;20083;-62
2022/01/17 06:37:55;;;;;;;21.90;4.15;;;6.00;99.90;;;;;;5097532;28;20123;-61
2022/01/17 06:40:21;;;;;;;23.73;5.05;;;6.00;99.90;;;;;;5097724;28;20098;-61
2022/01/17 06:42:47;;;;;;;26.17;4.45;;;6.10;99.90;;;;;;5062717;28;20093;-61
2022/01/17 06:45:15;;;;;;;24.83;4.50;;;6.00;99.90;;;;;;5097486;28;20059;-62
2022/01/17 06:47:41;;;;;;;20.50;5.50;;;6.10;99.90;;;;;;5097542;28;20052;-62
2022/01/17 06:50:08;;;;;;;19.23;3.92;;;6.00;99.90;;;;;;5079006;28;20059;-62
2022/01/17 06:52:35;;;;;;;27.15;5.50;;;6.00;99.90;;;;;;5097204;28;20116;-61
2022/01/17 06:55:01;;;;;;;30.65;4.57;;;6.00;99.90;;;;;;5079108;28;20048;-61
2022/01/17 06:57:26;;;;;;;31.98;7.15;;;6.00;99.90;;;;;;5096249;28;20113;-61
2022/01/17 06:59:54;;;;;;;25.88;4.22;;;6.00;99.90;;;;;;5078594;28;20044;-61
2022/01/17 07:02:20;;;;;;;28.65;4.07;;;6.10;99.90;;;;;;5061562;28;20165;-62
2022/01/17 07:04:46;;;;;;;31.20;5.30;;;6.20;99.90;;;;;;5078362;28;20134;-62
2022/01/17 07:07:12;;;;;;;35.22;4.80;;;6.20;99.90;;;;;;5095899;28;20134;-61
2022/01/17 07:09:38;;;;;;;30.48;4.63;;;6.30;99.90;;;;;;5078729;28;20059;-61
2022/01/17 07:12:05;;;;;;;32.45;5.22;;;6.30;99.90;;;;;;5096531;28;20040;-61
2022/01/17 07:14:31;;;;;;;31.15;4.28;;;6.20;99.90;;;;;;5078594;28;20086;-61
2022/01/17 07:16:57;;;;;;;25.52;4.90;;;6.20;99.90;;;;;;5096692;28;20082;-61
2022/01/17 07:19:24;;;;;;;30.20;4.53;;;6.30;99.90;;;;;;5061418;28;20074;-61
2022/01/17 07:21:51;;;;;;;32.70;5.57;;;6.30;99.90;;;;;;5061098;28;20513;-62
2022/01/17 07:24:17;;;;;;;30.25;6.07;;;6.30;99.90;;;;;;5096648;28;20052;-61
2022/01/17 07:26:43;;;;;;;26.08;4.60;;;6.40;99.90;;;;;;5087389;28;20045;-61
2022/01/17 07:29:09;;;;;;;24.77;4.90;;;6.30;99.90;;;;;;5076275;28;20066;-62
2022/01/17 07:31:36;;;;;;;23.42;4.30;;;6.30;99.90;;;;;;5059068;28;20048;-61
2022/01/17 07:34:02;;;;;;;30.67;4.90;;;6.40;99.90;;;;;;5041429;28;20063;-62
2022/01/17 07:36:28;;;;;;;23.52;6.32;;;6.40;99.90;;;;;;5076369;28;20091;-61
2022/01/17 07:38:54;;;;;;;26.73;4.50;;;6.40;99.90;;;;;;5075722;28;20046;-62
2022/01/17 07:41:20;;;;;;;26.52;3.78;;;6.20;99.90;;;;;;5076092;28;20689;-62
2022/01/17 07:43:47;;;;;;;28.70;4.50;;;6.50;99.90;;;;;;5058121;28;20045;-61
2022/01/17 07:49:13;;;;;;;29.80;5.80;;;6.60;99.90;;;;;;5044160;28;20175;-61
2022/01/17 07:51:41;;;;;;;22.23;4.90;;;6.60;99.90;;;;;;5057339;28;20783;-61
2022/01/17 07:54:10;;;;;;;28.35;5.35;;;6.70;99.90;;;;;;5056992;28;20140;-62
2022/01/17 07:56:36;;;;;;;29.50;5.65;;;6.70;99.90;;;;;;5075540;28;20049;-61
2022/01/17 07:59:03;;;;;;;34.03;6.07;;;6.70;99.90;;;;;;5057098;28;20045;-62
2022/01/17 08:01:29;;;;;;;18.73;4.75;;;6.70;99.90;;;;;;5075859;28;20053;-61
2022/01/17 08:03:54;;;;;;;26.90;4.47;;;6.70;99.90;;;;;;5074132;28;20059;-61
2022/01/17 08:06:20;;;;;;;30.08;5.60;;;6.80;99.90;;;;;;5057046;28;20100;-61
2022/01/17 08:08:47;;;;;;;29.63;4.88;;;6.80;99.90;;;;;;5075028;28;20087;-62
2022/01/17 08:11:13;;;;;;;28.65;4.55;;;6.80;99.90;;;;;;5074854;28;20049;-61
2022/01/17 08:13:39;;;;;;;34.20;5.47;;;6.90;99.90;;;;;;5075332;28;20059;-62
2022/01/17 08:16:05;;;;;;;27.02;5.10;;;7.00;99.90;;;;;;5074885;28;20045;-61
2022/01/17 08:18:30;;;;;;;35.72;5.45;;;7.00;99.90;;;;;;5076065;28;20044;-61
2022/01/17 08:20:56;;;;;;;31.40;4.82;;;7.10;99.90;;;;;;5075027;28;20037;-61
2022/01/17 08:23:22;;;;;;;33.25;6.15;;;7.00;99.90;;;;;;5057481;28;20052;-60
2022/01/17 08:25:48;;;;;;;39.92;6.38;;;7.10;99.90;;;;;;5074964;28;20148;-61
2022/01/17 08:28:13;;;;;;;30.58;4.75;;;7.20;99.90;;;;;;5073952;28;20056;-62
2022/01/17 08:30:40;;;;;;;30.10;5.95;;;7.20;99.90;;;;;;5075431;28;20598;-61
2022/01/17 08:33:05;;;;;;;29.40;4.65;;;7.20;99.90;;;;;;5056665;28;20105;-61
2022/01/17 08:35:31;;;;;;;33.22;6.55;;;7.20;99.90;;;;;;5075773;28;20123;-61
2022/01/17 08:37:57;;;;;;;25.25;3.90;;;7.20;99.90;;;;;;5074497;28;20063;-61
2022/01/17 08:40:24;;;;;;;31.92;6.53;;;7.20;99.90;;;;;;5057267;28;20028;-61
2022/01/17 08:42:49;;;;;;;30.42;5.85;;;7.30;99.90;;;;;;5075153;28;20108;-61
2022/01/17 08:45:18;;;;;;;27.55;5.10;;;7.40;99.90;;;;;;5075062;28;20512;-62
2022/01/17 08:47:49;;;;;;;26.25;5.10;;;7.40;99.90;;;;;;5075497;28;20086;-61
2022/01/17 08:50:17;;;;;;;31.02;4.95;;;7.40;99.90;;;;;;5057271;28;20048;-61
2022/01/17 08:52:45;;;;;;;23.83;3.95;;;7.40;99.90;;;;;;5075565;28;20063;-61
2022/01/17 08:55:11;;;;;;;31.00;7.63;;;7.40;99.90;;;;;;5056636;28;20044;-61
2022/01/17 08:57:36;;;;;;;30.23;5.50;;;7.40;99.90;;;;;;5075322;28;20106;-61
2022/01/17 09:00:06;;;;;;;30.73;5.18;;;7.50;99.90;;;;;;5074821;28;20098;-61
2022/01/17 09:02:32;;;;;;;35.67;6.15;;;7.50;99.90;;;;;;5074680;28;20112;-63
2022/01/17 09:04:57;;;;;;;25.13;4.88;;;7.60;99.90;;;;;;5057313;28;20079;-61
2022/01/17 09:07:23;;;;;;;24.70;5.32;;;7.50;99.90;;;;;;5056658;28;20048;-62
2022/01/17 09:09:49;;;;;;;37.28;6.22;;;7.60;99.90;;;;;;5075586;28;20040;-61
2022/01/17 09:12:15;;;;;;;29.58;5.70;;;7.60;99.90;;;;;;5056700;28;20765;-61
2022/01/17 09:14:41;;;;;;;30.80;6.30;;;7.70;99.90;;;;;;5075034;28;20631;-61
2022/01/17 09:17:08;;;;;;;31.80;5.40;;;7.60;99.90;;;;;;5074776;28;20045;-61
2022/01/17 09:19:36;;;;;;;32.58;6.15;;;7.70;99.90;;;;;;5074738;28;20044;-61
2022/01/17 09:22:02;;;;;;;29.55;5.05;;;7.80;99.90;;;;;;5071054;28;20574;-61
2022/01/17 09:24:28;;;;;;;37.38;5.32;;;7.70;99.90;;;;;;5065431;28;20071;-62
2022/01/17 09:26:54;;;;;;;30.50;4.60;;;7.80;99.90;;;;;;5059421;28;20056;-61
2022/01/17 09:29:20;;;;;;;34.45;6.00;;;7.90;99.90;;;;;;5072367;28;20082;-62
2022/01/17 09:31:46;;;;;;;40.10;7.82;;;7.90;99.90;;;;;;5057095;28;20040;-61
2022/01/17 09:34:13;;;;;;;29.25;6.70;;;7.90;99.90;;;;;;5077000;28;20059;-61
2022/01/17 09:36:39;;;;;;;29.73;5.72;;;7.90;99.90;;;;;;5078709;28;20045;-62
2022/01/17 09:39:07;;;;;;;27.95;4.68;;;8.00;99.90;;;;;;5060252;28;20050;-62
2022/01/17 09:41:33;;;;;;;35.05;7.07;;;8.00;99.90;;;;;;5060398;28;20050;-62
2022/01/17 09:43:59;;;;;;;34.35;7.00;;;8.00;99.90;;;;;;5078917;28;20049;-61
2022/01/17 09:46:32;;;;;;;43.25;6.03;;;8.10;99.90;;;;;;5078248;28;20041;-61
2022/01/17 09:49:14;;;;;;;33.50;6.60;;;8.10;99.90;;;;;;5078289;28;20748;-62
2022/01/17 09:52:06;;;;;;;36.42;5.82;;;8.10;99.90;;;;;;5077692;28;20052;-62
2022/01/17 09:54:36;;;;;;;36.85;5.72;;;8.20;99.90;;;;;;5078334;28;20051;-62
2022/01/17 09:57:07;;;;;;;33.10;5.32;;;8.10;99.90;;;;;;5078784;28;20529;-62
2022/01/17 09:59:35;;;;;;;36.78;6.43;;;8.10;99.90;;;;;;5077904;28;20079;-62
2022/01/17 10:02:01;;;;;;;26.52;5.60;;;8.10;99.90;;;;;;5078078;28;20047;-62
2022/01/17 10:04:26;;;;;;;38.78;7.25;;;8.10;99.90;;;;;;5059306;28;20124;-62
2022/01/17 10:06:54;;;;;;;33.08;5.97;;;8.10;99.90;;;;;;5077308;28;20048;-62
2022/01/17 10:09:24;;;;;;;39.78;6.22;;;8.20;99.90;;;;;;5078439;28;20045;-62
2022/01/17 10:12:10;;;;;;;27.80;5.93;;;8.20;99.90;;;;;;5077627;28;20049;-62
2022/01/17 10:14:40;;;;;;;33.53;5.70;;;8.10;99.90;;;;;;5059957;28;20056;-62
2022/01/17 10:17:16;;;;;;;34.85;6.45;;;8.20;99.90;;;;;;5077929;28;20088;-62
2022/01/17 10:19:44;;;;;;;31.30;5.80;;;8.20;99.90;;;;;;5061954;28;20044;-62
2022/01/17 10:22:16;;;;;;;39.10;7.88;;;8.40;99.90;;;;;;5081215;28;20075;-62
2022/01/17 10:25:00;;;;;;;28.90;6.07;;;8.50;99.90;;;;;;5080837;28;20096;-62
2022/01/17 10:35:40;;;;;;;46.85;7.20;;;8.10;99.90;;;;;;5081183;28;20122;-62
2022/01/17 10:38:11;;;;;;;37.92;7.07;;;8.20;99.90;;;;;;5080389;28;20049;-61
2022/01/17 10:40:44;;;;;;;37.00;7.13;;;8.20;99.90;;;;;;5029868;28;20052;-61
2022/01/17 10:43:25;;;;;;;41.08;6.00;;;8.20;99.90;;;;;;5062706;28;20044;-61
2022/01/17 10:45:52;;;;;;;42.22;6.60;;;8.30;99.90;;;;;;5060960;28;20044;-62
2022/01/17 10:48:18;;;;;;;35.83;6.40;;;8.30;99.90;;;;;;5063184;28;20062;-62
2022/01/17 10:50:51;;;;;;;41.40;7.55;;;8.30;99.90;;;;;;5061776;28;20045;-61
2022/01/17 10:53:18;;;;;;;47.83;8.38;;;8.30;99.90;;;;;;5080667;28;20049;-62
2022/01/17 10:55:48;;;;;;;36.80;6.97;;;8.30;99.90;;;;;;5080171;28;20040;-62
2022/01/17 10:58:29;;;;;;;38.03;7.15;;;8.30;99.90;;;;;;5080158;28;20043;-62
2022/01/17 11:01:04;;;;;;;37.08;7.28;;;8.40;99.90;;;;;;5080687;28;20119;-62
2022/01/17 11:03:32;;;;;;;48.33;7.55;;;8.40;99.90;;;;;;5045104;28;20060;-62
2022/01/17 11:06:02;;;;;;;32.00;6.35;;;8.40;99.90;;;;;;5080531;28;20032;-62
2022/01/17 11:08:30;;;;;;;41.55;9.40;;;8.40;99.90;;;;;;5061857;28;20036;-62
2022/01/17 11:10:57;;;;;;;42.00;7.10;;;8.40;99.90;;;;;;5062469;28;20120;-62
2022/01/17 11:13:29;;;;;;;51.05;9.98;;;8.40;99.90;;;;;;5079982;28;20079;-62
2022/01/17 11:15:58;;;;;;;43.60;9.10;;;8.50;99.90;;;;;;5079933;28;20041;-62
2022/01/17 11:18:27;;;;;;;34.75;5.95;;;8.50;99.90;;;;;;5080571;28;20036;-62
2022/01/17 11:21:10;;;;;;;46.58;8.32;;;8.60;99.90;;;;;;5079262;28;20064;-61
2022/01/17 11:23:37;;;;;;;39.10;7.63;;;8.70;99.90;;;;;;5079954;28;20040;-61
2022/01/17 11:26:05;;;;;;;41.15;7.43;;;8.70;99.90;;;;;;5079453;28;20060;-61
2022/01/17 11:28:34;;;;;;;40.17;7.18;;;8.70;99.90;;;;;;5079684;28;20053;-61
2022/01/17 11:31:02;;;;;;;43.67;9.45;;;8.70;99.90;;;;;;5045554;28;20040;-60
2022/01/17 11:33:28;;;;;;;40.33;6.90;;;8.70;99.90;;;;;;5079265;28;20511;-62
2022/01/17 11:35:55;;;;;;;38.00;7.78;;;8.70;99.90;;;;;;5079866;28;20224;-61
2022/01/17 11:38:48;;;;;;;40.80;8.23;;;8.70;99.90;;;;;;5079064;28;20071;-61
2022/01/17 11:41:34;;;;;;;39.05;7.15;;;8.70;99.90;;;;;;5043074;28;20057;-61
2022/01/17 11:44:06;;;;;;;41.60;8.20;;;8.80;99.90;;;;;;5079868;28;20032;-61
2022/01/17 11:46:50;;;;;;;37.50;8.63;;;8.90;99.90;;;;;;5072766;28;20080;-61
2022/01/17 11:49:26;;;;;;;42.25;7.35;;;8.80;99.90;;;;;;5066930;28;20052;-62
2022/01/17 11:51:52;;;;;;;45.17;8.30;;;8.80;99.90;;;;;;5042287;28;20048;-61
2022/01/17 11:54:24;;;;;;;38.22;8.70;;;8.70;99.90;;;;;;5059061;28;20041;-61
2022/01/17 11:56:56;;;;;;;45.35;9.77;;;8.70;99.90;;;;;;5059638;28;20068;-60
2022/01/17 11:59:35;;;;;;;44.95;8.48;;;8.70;99.90;;;;;;5040916;28;20049;-62
2022/01/17 12:02:15;;;;;;;44.13;8.05;;;8.70;99.90;;;;;;5059243;28;20051;-62
2022/01/17 12:05:02;;;;;;;46.78;9.00;;;8.70;99.90;;;;;;5058749;28;20059;-62
2022/01/17 12:07:54;;;;;;;53.92;8.57;;;8.70;99.90;;;;;;5058583;28;20075;-62
2022/01/17 12:10:21;;;;;;;;;;;8.70;99.90;;;;;;5058816;28;20069;-61
2022/01/17 12:13:13;;;;;;;53.20;9.48;;;8.80;99.90;;;;;;5085864;28;19920;-61
2022/01/17 12:18:40;;;;;;;38.97;7.68;;;8.90;99.90;;;;;;5099613;28;20052;-62
2022/01/17 12:21:40;;;;;;;50.13;7.95;;;8.80;99.90;;;;;;5080397;28;20055;-62
2022/01/17 12:24:18;;;;;;;43.92;8.00;;;8.70;99.90;;;;;;5083958;28;20063;-61
2022/01/17 12:27:06;;;;;;;47.45;8.18;;;8.70;99.90;;;;;;5084823;28;20063;-61
2022/01/17 12:29:42;;;;;;;51.00;9.27;;;8.60;99.90;;;;;;5079443;28;20129;-62
2022/01/17 12:32:31;;;;;;;48.65;8.73;;;8.60;99.90;;;;;;5060702;28;20052;-62
2022/01/17 12:35:11;;;;;;;50.42;8.95;;;8.60;99.90;;;;;;5069325;28;20104;-62
2022/01/17 12:37:41;;;;;;;50.55;10.60;;;8.60;99.90;;;;;;5078241;28;20514;-62
2022/01/17 12:40:12;;;;;;;41.20;7.78;;;8.50;99.90;;;;;;5079105;28;20044;-61
2022/01/17 12:43:16;;;;;;;55.00;10.80;;;8.50;99.90;;;;;;5077318;28;20507;-61
2022/01/17 12:45:48;;;;;;;49.88;9.05;;;8.50;99.90;;;;;;5075327;28;20064;-61
2022/01/17 12:48:16;;;;;;;46.22;7.68;;;8.60;99.90;;;;;;5078489;28;20036;-62
2022/01/17 12:50:44;;;;;;;43.15;9.80;;;8.60;99.90;;;;;;5077079;28;20055;-60
2022/01/17 12:53:12;;;;;;;64.10;11.15;;;8.60;99.90;;;;;;5066909;28;20221;-60
2022/01/17 12:55:45;;;;;;;52.85;9.75;;;8.60;99.90;;;;;;5069133;28;20041;-61
2022/01/17 12:58:13;;;;;;;42.10;7.47;;;8.60;99.90;;;;;;5069169;28;20061;-61
2022/01/17 13:00:43;;;;;;;54.17;9.05;;;8.50;99.90;;;;;;5069696;28;20033;-60
2022/01/17 13:03:09;;;;;;;38.53;8.30;;;8.60;99.90;;;;;;5068869;28;20044;-61
2022/01/17 13:05:38;;;;;;;44.78;8.07;;;8.70;99.90;;;;;;5069632;28;20041;-60
2022/01/17 13:08:04;;;;;;;48.90;8.80;;;8.70;99.90;;;;;;5070468;28;20769;-61
2022/01/17 13:10:30;;;;;;;53.95;8.93;;;8.70;99.90;;;;;;5074396;28;20051;-61
2022/01/17 13:12:57;;;;;;;43.00;8.68;;;8.80;99.90;;;;;;5072571;28;20075;-61
2022/01/17 13:15:24;;;;;;;53.55;9.90;;;8.80;99.90;;;;;;5074253;28;20076;-60
2022/01/17 13:17:51;;;;;;;45.67;8.43;;;8.70;99.90;;;;;;5073150;28;20080;-61
2022/01/17 13:20:19;;;;;;;50.65;9.57;;;8.70;99.90;;;;;;5073994;28;20052;-61
2022/01/17 13:22:54;;;;;;;43.40;9.40;;;8.70;99.90;;;;;;5074666;28;20059;-61
2022/01/17 13:25:21;;;;;;;52.67;9.20;;;8.70;99.90;;;;;;5072554;28;20044;-61